createdAt,value
2022-08-17T00:00:52.380Z,20.8
2022-08-17T00:01:53.385Z,20.8
2022-08-17T00:02:41.161Z,20.77
2022-08-17T00:03:32.933Z,20.73
2022-08-17T00:04:33.434Z,20.68
2022-08-17T00:05:33.721Z,20.66
2022-08-17T00:06:33.951Z,20.63
2022-08-17T00:07:33.888Z,20.6
2022-08-17T00:08:34.411Z,20.59
2022-08-17T00:09:34.913Z,20.68
2022-08-17T00:10:38.153Z,20.66
2022-08-17T00:11:36.637Z,20.53
2022-08-17T00:12:57.175Z,20.6
2022-08-17T00:13:47.672Z,20.55
2022-08-17T00:14:48.142Z,20.49
2022-08-17T00:15:49.060Z,20.55
2022-08-17T00:17:02.926Z,20.46
2022-08-17T00:17:50.953Z,20.52
2022-08-17T00:19:13.342Z,20.36
2022-08-17T00:19:51.541Z,20.5
2022-08-17T00:20:52.768Z,20.36
2022-08-17T00:22:40.011Z,20.39
2022-08-17T00:22:57.832Z,20.34
2022-08-17T00:23:57.821Z,20.36
2022-08-17T00:24:58.318Z,20.4
2022-08-17T00:25:58.536Z,20.26
2022-08-17T00:26:59.156Z,20.21
2022-08-17T00:28:00.845Z,20.39
2022-08-17T00:28:59.820Z,20.26
2022-08-17T00:30:00.339Z,20.29
2022-08-17T00:31:00.571Z,20.29
2022-08-17T00:33:16.135Z,20.3
2022-08-17T00:33:34.711Z,20.21
2022-08-17T00:34:37.540Z,20.21
2022-08-17T00:35:35.458Z,20.3
2022-08-17T00:36:35.679Z,20.27
2022-08-17T00:37:36.285Z,20.27
2022-08-17T00:38:36.595Z,20.29
2022-08-17T00:39:36.987Z,20.26
2022-08-17T00:40:52.323Z,20.34
2022-08-17T00:41:42.948Z,20.26
2022-08-17T00:42:38.858Z,20.34
2022-08-17T00:43:40.048Z,20.32
2022-08-17T00:44:40.249Z,20.27
2022-08-17T00:45:40.866Z,20.22
2022-08-17T00:46:41.364Z,20.19
2022-08-17T00:47:41.860Z,20.21
2022-08-17T00:48:42.309Z,20.26
2022-08-17T00:49:42.525Z,20.26
2022-08-17T00:50:43.425Z,20.24
2022-08-17T00:51:43.923Z,20.21
2022-08-17T00:52:44.148Z,20.26
2022-08-17T00:53:44.534Z,20.27
2022-08-17T00:54:48.192Z,20.27
2022-08-17T00:55:46.410Z,20.18
2022-08-17T00:56:46.844Z,20.21
2022-08-17T00:57:47.055Z,20.21
2022-08-17T00:58:47.417Z,20.21
2022-08-17T01:00:01.678Z,20.22
2022-08-17T01:00:48.554Z,20.12
2022-08-17T01:01:48.661Z,20.11
2022-08-17T01:02:48.710Z,20.14
2022-08-17T01:03:48.851Z,20.14
2022-08-17T01:04:49.278Z,20.15
2022-08-17T01:05:50.906Z,20.08
2022-08-17T01:06:50.917Z,20.11
2022-08-17T01:07:51.070Z,20.07
2022-08-17T01:08:58.078Z,20.14
2022-08-17T01:09:52.292Z,19.99
2022-08-17T01:11:05.747Z,20.04
2022-08-17T01:11:53.241Z,20.15
2022-08-17T01:12:53.461Z,20.08
2022-08-17T01:13:54.673Z,20.03
2022-08-17T01:14:55.170Z,20.04
2022-08-17T01:15:55.365Z,19.96
2022-08-17T01:16:55.576Z,20
2022-08-17T01:17:55.498Z,20
2022-08-17T01:18:55.898Z,20.07
2022-08-17T01:19:56.542Z,20
2022-08-17T01:20:56.478Z,20.02
2022-08-17T01:21:57.399Z,20.02
2022-08-17T01:22:57.910Z,20.02
2022-08-17T01:23:57.838Z,19.99
2022-08-17T01:24:59.331Z,20.04
2022-08-17T01:25:59.543Z,20.07
2022-08-17T01:27:10.903Z,20.04
2022-08-17T01:28:01.722Z,20.02
2022-08-17T01:29:30.022Z,20.11
2022-08-17T01:31:04.859Z,20.03
2022-08-17T01:31:30.511Z,20
2022-08-17T01:32:31.153Z,19.94
2022-08-17T01:33:32.085Z,20.02
2022-08-17T01:34:51.029Z,19.96
2022-08-17T01:35:33.959Z,19.96
2022-08-17T01:36:33.886Z,20.03
2022-08-17T01:37:34.813Z,19.97
2022-08-17T01:38:35.306Z,19.96
2022-08-17T01:39:35.525Z,20.11
2022-08-17T01:40:35.909Z,20
2022-08-17T01:41:36.102Z,19.99
2022-08-17T01:42:36.028Z,20.02
2022-08-17T01:43:37.327Z,20.03
2022-08-17T01:44:38.741Z,20.02
2022-08-17T01:45:37.936Z,20
2022-08-17T01:46:38.546Z,20.04
2022-08-17T01:47:41.769Z,20.03
2022-08-17T01:48:38.511Z,19.96
2022-08-17T01:49:40.327Z,20.07
2022-08-17T01:50:40.527Z,20.07
2022-08-17T01:51:40.737Z,20.08
2022-08-17T01:52:40.660Z,20
2022-08-17T01:53:42.002Z,20.03
2022-08-17T01:54:42.220Z,20.02
2022-08-17T01:55:43.442Z,20.08
2022-08-17T01:56:47.718Z,20.04
2022-08-17T01:57:44.696Z,20.04
2022-08-17T01:58:44.621Z,20.07
2022-08-17T01:59:45.058Z,20.07
2022-08-17T02:01:05.713Z,20.04
2022-08-17T02:01:46.516Z,20.1
2022-08-17T02:02:47.210Z,20.03
2022-08-17T02:04:05.407Z,20.04
2022-08-17T02:04:48.641Z,20.03
2022-08-17T02:05:49.839Z,20.03
2022-08-17T02:07:00.977Z,20.12
2022-08-17T02:08:06.288Z,20
2022-08-17T02:09:17.267Z,19.94
2022-08-17T02:10:34.377Z,19.84
2022-08-17T02:11:25.197Z,19.94
2022-08-17T02:12:53.543Z,19.74
2022-08-17T02:13:24.964Z,19.92
2022-08-17T02:14:26.177Z,19.66
2022-08-17T02:15:27.091Z,19.75
2022-08-17T02:16:38.283Z,19.63
2022-08-17T02:17:28.269Z,19.64
2022-08-17T02:18:29.467Z,19.67
2022-08-17T02:19:29.683Z,19.62
2022-08-17T02:20:47.670Z,19.63
2022-08-17T02:21:31.572Z,19.67
2022-08-17T02:22:32.508Z,19.66
2022-08-17T02:23:32.713Z,19.64
2022-08-17T02:25:07.533Z,19.63
2022-08-17T02:25:33.429Z,19.63
2022-08-17T02:26:34.624Z,19.6
2022-08-17T02:31:09.869Z,19.67
2022-08-17T02:32:10.073Z,19.63
2022-08-17T02:33:12.418Z,19.66
2022-08-17T02:34:11.571Z,19.56
2022-08-17T02:35:12.767Z,19.48
2022-08-17T02:36:12.697Z,19.47
2022-08-17T02:37:13.441Z,19.48
2022-08-17T02:38:14.344Z,19.49
2022-08-17T02:39:14.546Z,19.52
2022-08-17T02:40:15.651Z,19.56
2022-08-17T02:41:18.955Z,19.48
2022-08-17T02:42:20.172Z,19.52
2022-08-17T02:43:20.815Z,19.47
2022-08-17T02:44:46.076Z,19.47
2022-08-17T02:45:21.995Z,19.47
2022-08-17T02:46:22.214Z,19.42
2022-08-17T02:47:22.426Z,19.38
2022-08-17T02:48:37.147Z,19.48
2022-08-17T02:49:23.649Z,19.42
2022-08-17T02:50:23.866Z,19.41
2022-08-17T02:51:24.879Z,19.45
2022-08-17T02:53:02.840Z,19.39
2022-08-17T02:53:26.020Z,19.48
2022-08-17T02:54:46.964Z,19.39
2022-08-17T02:55:26.163Z,19.39
2022-08-17T02:56:26.367Z,19.44
2022-08-17T02:57:26.877Z,19.45
2022-08-17T02:58:40.719Z,19.38
2022-08-17T02:59:26.916Z,19.35
2022-08-17T03:00:28.110Z,19.3
2022-08-17T03:01:28.890Z,19.45
2022-08-17T03:02:29.222Z,19.29
2022-08-17T03:03:29.467Z,19.35
2022-08-17T03:04:30.367Z,19.38
2022-08-17T03:05:30.389Z,19.35
2022-08-17T03:06:31.313Z,19.34
2022-08-17T03:07:31.943Z,19.27
2022-08-17T03:08:32.876Z,19.26
2022-08-17T03:09:33.369Z,19.2
2022-08-17T03:10:33.287Z,19.09
2022-08-17T03:11:34.567Z,19.08
2022-08-17T03:12:35.282Z,19.08
2022-08-17T03:13:36.189Z,18.92
2022-08-17T03:14:41.996Z,19.05
2022-08-17T03:15:43.818Z,18.97
2022-08-17T03:16:37.105Z,19.07
2022-08-17T03:17:38.421Z,18.96
2022-08-17T03:18:38.342Z,18.97
2022-08-17T03:19:43.542Z,18.89
2022-08-17T03:20:39.744Z,18.86
2022-08-17T03:21:40.751Z,19.04
2022-08-17T03:22:54.689Z,18.88
2022-08-17T03:23:42.272Z,19
2022-08-17T03:24:42.375Z,19.04
2022-08-17T03:25:44.422Z,18.98
2022-08-17T03:26:43.272Z,19.05
2022-08-17T03:27:51.874Z,18.88
2022-08-17T03:28:44.530Z,19.04
2022-08-17T03:29:44.730Z,19.01
2022-08-17T03:30:45.652Z,18.89
2022-08-17T03:31:46.659Z,19
2022-08-17T03:32:46.739Z,18.94
2022-08-17T03:33:47.570Z,18.94
2022-08-17T03:34:48.184Z,18.92
2022-08-17T03:35:49.101Z,18.88
2022-08-17T03:36:49.313Z,18.92
2022-08-17T03:38:01.389Z,18.92
2022-08-17T03:38:51.644Z,18.89
2022-08-17T03:39:51.079Z,18.81
2022-08-17T03:41:04.557Z,18.89
2022-08-17T03:41:52.835Z,18.86
2022-08-17T03:42:53.322Z,18.97
2022-08-17T03:43:53.943Z,18.91
2022-08-17T03:44:58.239Z,18.91
2022-08-17T03:45:57.742Z,18.86
2022-08-17T03:46:56.045Z,18.76
2022-08-17T03:47:56.969Z,18.81
2022-08-17T03:48:58.160Z,18.74
2022-08-17T03:49:59.058Z,18.83
2022-08-17T03:50:59.897Z,18.76
2022-08-17T03:52:00.212Z,18.92
2022-08-17T03:53:00.595Z,18.86
2022-08-17T03:54:01.515Z,18.74
2022-08-17T03:55:02.480Z,18.89
2022-08-17T03:56:03.406Z,18.92
2022-08-17T03:57:04.027Z,18.91
2022-08-17T03:58:04.980Z,18.91
2022-08-17T03:59:06.081Z,18.89
2022-08-17T04:00:06.468Z,18.85
2022-08-17T04:01:06.859Z,18.91
2022-08-17T04:02:07.385Z,18.89
2022-08-17T04:03:09.210Z,18.85
2022-08-17T04:04:08.625Z,18.82
2022-08-17T04:05:09.600Z,18.88
2022-08-17T04:06:10.096Z,18.89
2022-08-17T04:07:10.290Z,18.89
2022-08-17T04:08:11.373Z,18.89
2022-08-17T04:09:11.574Z,18.83
2022-08-17T04:10:12.038Z,18.83
2022-08-17T04:11:12.763Z,18.88
2022-08-17T04:12:12.593Z,18.86
2022-08-17T04:13:13.217Z,18.96
2022-08-17T04:14:13.913Z,18.89
2022-08-17T04:15:13.822Z,18.89
2022-08-17T04:16:15.019Z,18.83
2022-08-17T04:17:15.940Z,18.76
2022-08-17T04:18:17.105Z,18.7
2022-08-17T04:19:16.598Z,18.78
2022-08-17T04:20:16.821Z,18.74
2022-08-17T04:21:17.718Z,18.76
2022-08-17T04:22:39.694Z,18.74
2022-08-17T04:23:19.689Z,18.79
2022-08-17T04:24:19.742Z,18.76
2022-08-17T04:25:20.661Z,18.79
2022-08-17T04:27:00.040Z,18.7
2022-08-17T04:27:21.960Z,18.68
2022-08-17T04:28:22.274Z,18.73
2022-08-17T04:29:23.175Z,18.67
2022-08-17T04:30:23.859Z,18.76
2022-08-17T04:31:24.060Z,18.71
2022-08-17T04:33:11.492Z,18.68
2022-08-17T04:33:28.917Z,18.73
2022-08-17T04:34:28.838Z,18.68
2022-08-17T04:35:29.777Z,18.68
2022-08-17T04:36:30.306Z,18.6
2022-08-17T04:37:31.511Z,18.55
2022-08-17T04:38:32.006Z,18.58
2022-08-17T04:39:34.407Z,18.61
2022-08-17T04:40:33.555Z,18.58
2022-08-17T04:41:33.868Z,18.57
2022-08-17T04:42:34.152Z,18.57
2022-08-17T04:43:34.373Z,18.55
2022-08-17T04:44:43.382Z,18.58
2022-08-17T04:45:38.483Z,18.6
2022-08-17T04:46:36.520Z,18.6
2022-08-17T04:47:36.740Z,18.55
2022-08-17T04:48:42.570Z,18.57
2022-08-17T04:49:38.193Z,18.63
2022-08-17T04:50:39.071Z,18.58
2022-08-17T04:51:56.334Z,18.55
2022-08-17T04:53:07.358Z,18.55
2022-08-17T04:54:07.557Z,18.55
2022-08-17T04:55:08.055Z,18.55
2022-08-17T04:56:16.323Z,18.45
2022-08-17T04:57:08.780Z,18.51
2022-08-17T04:58:09.981Z,18.52
2022-08-17T04:59:10.176Z,18.49
2022-08-17T05:00:11.983Z,18.57
2022-08-17T05:01:12.394Z,18.63
2022-08-17T05:02:13.388Z,18.53
2022-08-17T05:03:13.739Z,18.55
2022-08-17T05:04:39.159Z,18.6
2022-08-17T05:05:15.389Z,18.6
2022-08-17T05:06:14.663Z,18.7
2022-08-17T05:07:21.166Z,18.67
2022-08-17T05:08:15.603Z,18.66
2022-08-17T05:09:16.511Z,18.68
2022-08-17T05:10:16.528Z,18.79
2022-08-17T05:11:17.723Z,18.76
2022-08-17T05:12:18.214Z,18.76
2022-08-17T05:13:18.836Z,18.74
2022-08-17T05:14:19.460Z,18.78
2022-08-17T05:15:19.916Z,18.78
2022-08-17T05:16:20.950Z,18.76
2022-08-17T05:17:21.451Z,18.78
2022-08-17T05:18:24.445Z,18.78
2022-08-17T05:19:22.605Z,18.81
2022-08-17T05:20:23.103Z,18.71
2022-08-17T05:21:23.305Z,18.88
2022-08-17T05:22:23.231Z,18.92
2022-08-17T05:23:23.959Z,18.89
2022-08-17T05:24:55.431Z,18.86
2022-08-17T05:25:36.269Z,18.97
2022-08-17T05:26:36.678Z,19.05
2022-08-17T05:27:36.013Z,18.98
2022-08-17T05:28:34.943Z,19.04
2022-08-17T05:29:39.510Z,19.07
2022-08-17T05:30:29.010Z,19.12
2022-08-17T05:31:29.362Z,19.09
2022-08-17T05:32:43.594Z,19.05
2022-08-17T05:33:32.434Z,19.19
2022-08-17T05:34:33.230Z,19.12
2022-08-17T05:35:33.853Z,19.17
2022-08-17T05:36:49.763Z,19.27
2022-08-17T05:37:34.987Z,19.24
2022-08-17T05:38:35.196Z,19.26
2022-08-17T05:39:35.805Z,19.24
2022-08-17T05:40:39.204Z,19.32
2022-08-17T05:41:36.424Z,19.37
2022-08-17T05:42:37.019Z,19.38
2022-08-17T05:43:37.726Z,19.42
2022-08-17T05:44:37.885Z,19.41
2022-08-17T05:46:01.113Z,19.48
2022-08-17T05:46:38.035Z,19.45
2022-08-17T05:47:38.681Z,19.48
2022-08-17T05:48:45.277Z,19.48
2022-08-17T05:49:40.196Z,19.49
2022-08-17T05:50:41.819Z,19.53
2022-08-17T05:51:40.741Z,19.52
2022-08-17T05:52:41.934Z,19.59
2022-08-17T05:53:45.198Z,19.62
2022-08-17T05:54:43.701Z,19.66
2022-08-17T05:55:44.012Z,19.67
2022-08-17T05:56:44.240Z,19.75
2022-08-17T05:57:55.993Z,19.82
2022-08-17T05:58:45.400Z,19.9
2022-08-17T05:59:45.905Z,19.93
2022-08-17T06:00:47.976Z,19.96
2022-08-17T06:01:46.434Z,19.94
2022-08-17T06:02:53.599Z,20.04
2022-08-17T06:03:47.861Z,20.02
2022-08-17T06:04:48.415Z,20.18
2022-08-17T06:05:49.630Z,20.17
2022-08-17T06:06:50.131Z,20.22
2022-08-17T06:07:50.328Z,20.29
2022-08-17T06:08:51.999Z,20.36
2022-08-17T06:09:50.929Z,20.37
2022-08-17T06:10:52.200Z,20.36
2022-08-17T06:11:54.043Z,20.58
2022-08-17T06:12:52.197Z,20.53
2022-08-17T06:13:52.533Z,20.66
2022-08-17T06:14:53.738Z,20.64
2022-08-17T06:15:54.384Z,20.74
2022-08-17T06:16:55.514Z,20.74
2022-08-17T06:17:55.738Z,20.85
2022-08-17T06:18:55.965Z,20.89
2022-08-17T06:19:56.477Z,21
2022-08-17T06:20:57.000Z,20.93
2022-08-17T06:21:57.208Z,21.05
2022-08-17T06:24:58.832Z,21.13
2022-08-17T06:26:00.070Z,21.26
2022-08-17T06:26:59.973Z,21.25
2022-08-17T06:28:00.874Z,21.35
2022-08-17T06:30:02.302Z,21.5
2022-08-17T06:32:03.451Z,21.54
2022-08-17T06:33:03.951Z,21.58
2022-08-17T06:34:04.692Z,21.63
2022-08-17T06:35:05.634Z,21.69
2022-08-17T06:36:10.214Z,21.81
2022-08-17T06:37:06.260Z,21.81
2022-08-17T06:38:06.472Z,21.92
2022-08-17T06:39:07.142Z,21.94
2022-08-17T06:40:08.291Z,22.06
2022-08-17T06:41:08.908Z,22.07
2022-08-17T06:42:10.190Z,22.25
2022-08-17T06:43:20.419Z,22.3
2022-08-17T06:44:56.636Z,22.4
2022-08-17T06:45:21.136Z,22.38
2022-08-17T06:46:21.648Z,22.51
2022-08-17T06:47:34.748Z,22.63
2022-08-17T06:48:23.388Z,22.62
2022-08-17T06:49:24.027Z,22.71
2022-08-17T06:50:24.525Z,22.81
2022-08-17T06:51:25.157Z,22.77
2022-08-17T06:52:52.832Z,22.83
2022-08-17T06:53:27.046Z,22.83
2022-08-17T06:54:27.772Z,22.98
2022-08-17T06:55:28.280Z,23.29
2022-08-17T06:56:55.376Z,23.73
2022-08-17T06:57:29.675Z,23.92
2022-08-17T06:58:35.524Z,24.43
2022-08-17T06:59:56.693Z,24.88
2022-08-17T07:00:30.935Z,25.03
2022-08-17T07:01:32.240Z,25.3
2022-08-17T07:02:58.331Z,25.3
2022-08-17T07:03:33.720Z,25.18
2022-08-17T07:04:34.072Z,25.33
2022-08-17T07:05:34.713Z,25.36
2022-08-17T07:06:38.717Z,25.41
2022-08-17T07:07:35.922Z,25.56
2022-08-17T07:08:40.606Z,25.8
2022-08-17T07:09:36.943Z,26.11
2022-08-17T07:10:38.454Z,26.27
2022-08-17T07:11:38.656Z,26.3
2022-08-17T07:12:39.582Z,26.23
2022-08-17T07:13:40.158Z,26.22
2022-08-17T07:14:41.406Z,26.27
2022-08-17T07:15:41.611Z,26.26
2022-08-17T07:16:42.220Z,26.33
2022-08-17T07:17:54.052Z,26.13
2022-08-17T07:18:43.575Z,26.01
2022-08-17T07:19:44.126Z,25.85
2022-08-17T07:20:44.909Z,25.74
2022-08-17T07:21:46.120Z,25.68
2022-08-17T07:23:03.329Z,25.62
2022-08-17T07:23:46.561Z,25.62
2022-08-17T07:24:47.642Z,25.71
2022-08-17T07:25:47.840Z,25.83
2022-08-17T07:26:48.492Z,25.88
2022-08-17T07:27:50.295Z,25.93
2022-08-17T07:28:49.615Z,25.99
2022-08-17T07:29:50.545Z,26.13
2022-08-17T07:30:53.558Z,26.11
2022-08-17T07:31:51.769Z,26.13
2022-08-17T07:32:51.705Z,26.22
2022-08-17T07:33:53.205Z,26.23
2022-08-17T07:34:53.238Z,26.33
2022-08-17T07:35:53.755Z,26.42
2022-08-17T07:36:53.739Z,26.46
2022-08-17T07:37:54.896Z,26.59
2022-08-17T07:38:54.677Z,26.56
2022-08-17T07:40:21.975Z,26.7
2022-08-17T07:40:56.126Z,26.71
2022-08-17T07:42:03.096Z,26.67
2022-08-17T07:42:57.027Z,26.71
2022-08-17T07:43:57.317Z,26.71
2022-08-17T07:44:58.324Z,26.76
2022-08-17T07:45:58.827Z,26.71
2022-08-17T07:47:00.758Z,26.82
2022-08-17T07:47:59.666Z,26.79
2022-08-17T07:48:59.467Z,26.88
2022-08-17T07:50:00.425Z,26.98
2022-08-17T07:51:00.939Z,26.98
2022-08-17T07:52:51.289Z,27.08
2022-08-17T07:53:09.580Z,27.05
2022-08-17T07:54:20.728Z,27.13
2022-08-17T07:55:09.294Z,27.11
2022-08-17T07:56:09.506Z,27.16
2022-08-17T07:57:10.021Z,27.19
2022-08-17T07:58:10.376Z,27.2
2022-08-17T07:59:14.713Z,27.18
2022-08-17T08:00:33.078Z,27.11
2022-08-17T08:01:15.508Z,27.07
2022-08-17T08:02:17.418Z,27.1
2022-08-17T08:03:14.729Z,27.1
2022-08-17T08:04:25.878Z,27.2
2022-08-17T08:05:58.711Z,27.26
2022-08-17T08:06:58.622Z,27.28
2022-08-17T08:08:00.000Z,27.29
2022-08-17T08:09:00.299Z,27.41
2022-08-17T08:10:00.651Z,27.38
2022-08-17T08:11:01.858Z,27.5
2022-08-17T08:12:02.795Z,27.41
2022-08-17T08:13:04.406Z,27.58
2022-08-17T08:14:03.661Z,27.57
2022-08-17T08:15:03.934Z,27.44
2022-08-17T08:16:04.094Z,27.58
2022-08-17T08:17:06.057Z,27.44
2022-08-17T08:18:05.430Z,27.53
2022-08-17T08:19:06.182Z,27.44
2022-08-17T08:20:54.143Z,27.44
2022-08-17T08:21:11.121Z,27.57
2022-08-17T08:22:11.063Z,27.53
2022-08-17T08:23:11.756Z,27.64
2022-08-17T08:24:12.682Z,27.64
2022-08-17T08:25:12.602Z,27.63
2022-08-17T08:26:18.914Z,27.63
2022-08-17T08:27:13.194Z,27.68
2022-08-17T08:28:14.415Z,27.66
2022-08-17T08:29:14.327Z,27.78
2022-08-17T08:30:14.726Z,27.97
2022-08-17T08:31:15.284Z,28.2
2022-08-17T08:32:15.220Z,28.57
2022-08-17T08:33:16.325Z,28.78
2022-08-17T08:35:07.069Z,29.44
2022-08-17T08:35:23.739Z,29.58
2022-08-17T08:37:37.945Z,30.39
2022-08-17T08:37:57.755Z,30.59
2022-08-17T08:38:58.413Z,31.08
2022-08-17T08:39:59.563Z,31.55
2022-08-17T08:41:00.063Z,31.92
2022-08-17T08:42:01.010Z,32.27
2022-08-17T08:43:01.246Z,32.45
2022-08-17T08:44:01.890Z,32.3
2022-08-17T08:45:11.307Z,32.31
2022-08-17T08:46:02.447Z,32.35
2022-08-17T08:47:03.262Z,32.42
2022-08-17T08:48:53.539Z,32.82
2022-08-17T08:50:03.177Z,32.72
2022-08-17T08:50:48.837Z,32.71
2022-08-17T08:51:51.887Z,32.57
2022-08-17T08:52:49.868Z,32.64
2022-08-17T08:53:49.819Z,32.81
2022-08-17T08:54:50.458Z,32.82
2022-08-17T08:55:51.416Z,32.76
2022-08-17T08:57:34.748Z,32.71
2022-08-17T08:58:49.457Z,32.6
2022-08-17T08:59:58.697Z,32.53
2022-08-17T09:00:50.711Z,32.39
2022-08-17T09:01:51.711Z,32.41
2022-08-17T09:02:52.193Z,32.37
2022-08-17T09:04:24.457Z,32.57
2022-08-17T09:05:20.357Z,32.82
2022-08-17T09:06:45.320Z,32.56
2022-08-17T09:07:17.838Z,32.41
2022-08-17T09:08:18.352Z,32.23
2022-08-17T09:09:18.778Z,32.07
2022-08-17T09:10:20.288Z,31.85
2022-08-17T09:11:19.922Z,31.77
2022-08-17T09:12:20.650Z,31.57
2022-08-17T09:13:21.873Z,31.57
2022-08-17T09:14:29.396Z,31.54
2022-08-17T09:15:23.143Z,31.52
2022-08-17T09:16:24.376Z,31.52
2022-08-17T09:17:25.158Z,31.79
2022-08-17T09:19:08.363Z,31.87
2022-08-17T09:19:56.357Z,32.02
2022-08-17T09:20:56.621Z,32.16
2022-08-17T09:21:57.399Z,32.07
2022-08-17T09:22:57.468Z,31.92
2022-08-17T09:23:58.292Z,31.92
2022-08-17T09:24:58.532Z,31.89
2022-08-17T09:25:58.767Z,31.98
2022-08-17T09:26:59.005Z,32.23
2022-08-17T09:28:01.326Z,32.19
2022-08-17T09:29:00.553Z,32.29
2022-08-17T09:30:01.862Z,32.29
2022-08-17T09:31:02.380Z,32.57
2022-08-17T09:32:03.029Z,32.76
2022-08-17T09:33:04.249Z,32.75
2022-08-17T09:34:04.898Z,32.88
2022-08-17T09:35:05.364Z,33.09
2022-08-17T09:36:06.355Z,33.39
2022-08-17T09:37:06.593Z,33.6
2022-08-17T09:38:09.509Z,33.79
2022-08-17T09:39:08.175Z,33.7
2022-08-17T09:40:09.819Z,33.44
2022-08-17T09:41:10.012Z,33.08
2022-08-17T09:42:10.528Z,32.85
2022-08-17T09:43:10.224Z,32.79
2022-08-17T09:44:24.043Z,32.85
2022-08-17T09:45:12.153Z,32.94
2022-08-17T09:46:12.130Z,32.88
2022-08-17T09:47:12.774Z,32.97
2022-08-17T09:48:14.010Z,33.01
2022-08-17T09:49:14.447Z,33.2
2022-08-17T09:50:14.586Z,33.45
2022-08-17T09:51:15.531Z,33.58
2022-08-17T09:52:18.483Z,33.82
2022-08-17T09:53:16.942Z,33.94
2022-08-17T09:54:45.283Z,33.84
2022-08-17T09:55:19.721Z,33.66
2022-08-17T09:56:19.939Z,33.12
2022-08-17T09:57:35.939Z,32.61
2022-08-17T09:58:22.841Z,32.37
2022-08-17T09:59:22.285Z,32.41
2022-08-17T10:00:21.804Z,32.42
2022-08-17T10:01:22.495Z,32.51
2022-08-17T10:02:23.359Z,32.61
2022-08-17T10:03:23.810Z,32.71
2022-08-17T10:04:29.911Z,32.78
2022-08-17T10:05:24.562Z,32.83
2022-08-17T10:06:28.183Z,32.68
2022-08-17T10:07:25.296Z,32.42
2022-08-17T10:08:27.860Z,32.22
2022-08-17T10:09:26.798Z,31.9
2022-08-17T10:10:29.695Z,31.6
2022-08-17T10:11:45.801Z,31.37
2022-08-17T10:12:35.430Z,31.41
2022-08-17T10:13:31.913Z,31.37
2022-08-17T10:14:55.097Z,31.51
2022-08-17T10:15:30.992Z,31.55
2022-08-17T10:16:32.319Z,31.57
2022-08-17T10:17:32.551Z,31.48
2022-08-17T10:18:38.972Z,31.51
2022-08-17T10:19:34.334Z,31.48
2022-08-17T10:20:34.767Z,31.45
2022-08-17T10:21:35.423Z,31.41
2022-08-17T10:22:42.253Z,31.29
2022-08-17T10:23:36.675Z,31.3
2022-08-17T10:24:37.276Z,31.5
2022-08-17T10:26:00.943Z,31.77
2022-08-17T10:27:03.147Z,31.87
2022-08-17T10:27:57.262Z,32.23
2022-08-17T10:28:57.102Z,32.42
2022-08-17T10:29:57.254Z,32.66
2022-08-17T10:31:34.075Z,32.75
2022-08-17T10:31:58.382Z,32.56
2022-08-17T10:32:58.442Z,32.12
2022-08-17T10:33:59.095Z,32.07
2022-08-17T10:35:00.440Z,31.93
2022-08-17T10:36:10.626Z,31.86
2022-08-17T10:37:01.001Z,32.01
2022-08-17T10:38:01.646Z,32.08
2022-08-17T10:39:02.741Z,32.08
2022-08-17T10:40:03.571Z,32.15
2022-08-17T10:41:04.204Z,32.19
2022-08-17T10:42:04.718Z,32.04
2022-08-17T10:43:05.474Z,32
2022-08-17T10:44:46.111Z,32.05
2022-08-17T10:45:06.668Z,32.08
2022-08-17T10:46:35.974Z,32.26
2022-08-17T10:47:07.615Z,32.41
2022-08-17T10:48:13.021Z,32.54
2022-08-17T10:49:08.440Z,32.56
2022-08-17T10:50:09.377Z,32.75
2022-08-17T10:51:09.365Z,32.86
2022-08-17T10:52:10.577Z,32.95
2022-08-17T10:53:10.493Z,33.08
2022-08-17T10:54:11.082Z,33.17
2022-08-17T10:55:12.319Z,33.29
2022-08-17T10:56:12.564Z,33.32
2022-08-17T10:57:13.208Z,33.42
2022-08-17T10:58:14.425Z,33.4
2022-08-17T10:59:14.739Z,33.39
2022-08-17T11:00:15.260Z,33.5
2022-08-17T11:01:15.829Z,33.6
2022-08-17T11:02:16.224Z,33.51
2022-08-17T11:03:16.840Z,33.47
2022-08-17T11:04:17.361Z,33.47
2022-08-17T11:05:17.944Z,33.48
2022-08-17T11:06:18.854Z,33.58
2022-08-17T11:07:19.795Z,33.67
2022-08-17T11:08:23.312Z,33.7
2022-08-17T11:09:20.533Z,33.75
2022-08-17T11:10:20.763Z,33.75
2022-08-17T11:11:21.788Z,33.76
2022-08-17T11:12:21.722Z,33.58
2022-08-17T11:13:22.238Z,33.66
2022-08-17T11:14:22.578Z,33.67
2022-08-17T11:15:23.491Z,33.67
2022-08-17T11:16:23.945Z,33.61
2022-08-17T11:19:25.820Z,33.65
2022-08-17T11:20:26.726Z,33.73
2022-08-17T11:21:27.733Z,33.81
2022-08-17T11:22:33.838Z,33.72
2022-08-17T11:23:28.186Z,33.77
2022-08-17T11:24:29.431Z,33.75
2022-08-17T11:25:29.902Z,33.91
2022-08-17T11:26:30.127Z,33.89
2022-08-17T11:27:31.077Z,33.91
2022-08-17T11:28:32.039Z,33.92
2022-08-17T11:29:36.670Z,33.77
2022-08-17T11:30:34.333Z,33.65
2022-08-17T11:31:48.603Z,33.55
2022-08-17T11:32:55.819Z,33.42
2022-08-17T11:33:48.060Z,33.33
2022-08-17T11:34:48.279Z,33.31
2022-08-17T11:35:48.942Z,33.08
2022-08-17T11:36:50.581Z,32.9
2022-08-17T11:38:54.361Z,32.51
2022-08-17T11:39:51.911Z,32.45
2022-08-17T11:40:53.245Z,32.29
2022-08-17T11:41:54.282Z,32.31
2022-08-17T11:42:54.571Z,32.11
2022-08-17T11:43:54.507Z,32.09
2022-08-17T11:44:55.674Z,32.01
2022-08-17T11:45:56.186Z,32.05
2022-08-17T11:46:57.919Z,31.9
2022-08-17T11:48:29.435Z,31.89
2022-08-17T11:48:57.838Z,31.9
2022-08-17T11:49:58.302Z,31.98
2022-08-17T11:50:59.326Z,32.02
2022-08-17T11:52:01.645Z,32.08
2022-08-17T11:53:00.320Z,32.24
2022-08-17T11:54:35.391Z,32.34
2022-08-17T11:55:38.378Z,32.41
2022-08-17T11:56:02.713Z,32.34
2022-08-17T11:57:02.933Z,32.37
2022-08-17T11:58:03.149Z,32.29
2022-08-17T11:59:04.159Z,32.23
2022-08-17T12:00:05.058Z,32.31
2022-08-17T12:01:06.466Z,32.26
2022-08-17T12:02:06.634Z,32.29
2022-08-17T12:03:07.210Z,32.27
2022-08-17T12:04:08.003Z,32.11
2022-08-17T12:05:12.619Z,32.22
2022-08-17T12:06:08.818Z,32.15
2022-08-17T12:07:09.746Z,32.27
2022-08-17T12:08:10.693Z,32.27
2022-08-17T12:09:10.904Z,32.27
2022-08-17T12:10:11.838Z,32.24
2022-08-17T12:11:12.069Z,32.3
2022-08-17T12:12:53.638Z,32.45
2022-08-17T12:13:53.879Z,32.49
2022-08-17T12:15:18.662Z,32.53
2022-08-17T12:15:54.334Z,32.68
2022-08-17T12:16:54.596Z,32.64
2022-08-17T12:17:55.967Z,32.68
2022-08-17T12:18:56.023Z,32.64
2022-08-17T12:19:55.958Z,32.63
2022-08-17T12:21:02.498Z,32.67
2022-08-17T12:21:56.149Z,32.61
2022-08-17T12:22:56.727Z,32.66
2022-08-17T12:23:56.955Z,32.64
2022-08-17T12:24:57.163Z,32.66
2022-08-17T12:25:57.387Z,32.64
2022-08-17T12:26:58.621Z,32.57
2022-08-17T12:28:13.220Z,32.53
2022-08-17T12:28:59.964Z,32.46
2022-08-17T12:30:00.207Z,32.29
2022-08-17T12:31:01.146Z,32.3
2022-08-17T12:32:01.657Z,32.34
2022-08-17T12:33:02.224Z,32.41
2022-08-17T12:34:03.214Z,32.59
2022-08-17T12:35:03.720Z,32.64
2022-08-17T12:36:05.112Z,32.83
2022-08-17T12:37:04.454Z,32.86
2022-08-17T12:38:04.971Z,32.93
2022-08-17T12:39:21.974Z,33.01
2022-08-17T12:40:06.225Z,32.93
2022-08-17T12:41:06.038Z,32.9
2022-08-17T12:42:08.528Z,32.94
2022-08-17T12:43:07.360Z,33
2022-08-17T12:44:08.406Z,32.82
2022-08-17T12:45:08.919Z,32.83
2022-08-17T12:46:20.597Z,32.71
2022-08-17T12:47:09.443Z,32.73
2022-08-17T12:48:10.119Z,32.81
2022-08-17T12:49:10.630Z,32.72
2022-08-17T12:50:30.206Z,32.82
2022-08-17T12:51:11.331Z,33.04
2022-08-17T12:52:11.972Z,33.15
2022-08-17T12:53:11.523Z,33.33
2022-08-17T12:54:12.763Z,33.4
2022-08-17T12:55:14.002Z,33.42
2022-08-17T12:56:14.387Z,33.38
2022-08-17T12:57:14.342Z,33.45
2022-08-17T12:58:19.635Z,33.42
2022-08-17T12:59:30.700Z,33.38
2022-08-17T13:00:15.795Z,33.23
2022-08-17T13:01:15.788Z,33.12
2022-08-17T13:02:16.354Z,33
2022-08-17T13:03:18.895Z,32.86
2022-08-17T13:04:16.573Z,32.85
2022-08-17T13:05:17.306Z,32.64
2022-08-17T13:06:17.259Z,32.71
2022-08-17T13:07:18.474Z,32.56
2022-08-17T13:08:18.390Z,32.54
2022-08-17T13:09:18.601Z,32.57
2022-08-17T13:10:19.681Z,32.54
2022-08-17T13:11:20.697Z,32.54
2022-08-17T13:12:21.313Z,32.57
2022-08-17T13:13:22.042Z,32.53
2022-08-17T13:14:22.972Z,32.46
2022-08-17T13:15:23.280Z,32.34
2022-08-17T13:16:24.235Z,32.35
2022-08-17T13:17:24.894Z,32.19
2022-08-17T13:18:25.832Z,32.11
2022-08-17T13:19:45.705Z,31.86
2022-08-17T13:20:26.110Z,31.78
2022-08-17T13:21:27.149Z,31.57